Disclaimer

Please do not use the information listed here in-flight or in-navigation, as they are not provided to us by the airports but are provided by volunteers, so they might be outdated.

Search


Regions


Airport information page

Radio informations:
Tower (TWR) - 129.3 MHz

Airport informations:
Latitude: 53° 12' 25.00" N
Longitude: 063° 33' 01.00" E
Elevation: 595 feet - 181 meters
Operating hours: 24 hour operations
Operating agency: Civil government, landing fees and diplomatic clearance may be required
Timezone: UTC+6
Fuel: Jet B, Wide cut turbine fuel, Without icing inhibitor.

Runway information:
15/33 - 8150 x 157 feet< - >2484 x 48 meters

Recent METARs:
UAUU 180830Z 19003MPS 9999 SCT046 01/M03 Q1023 R33/190050 NOSIG RMK QFE752/1002
UAUU 180900Z 17003MPS 9999 SCT046 02/M03 Q1023 R33/190050 NOSIG RMK QFE752/1002
UAUU 180900Z 17003MPS 9999 SCT046 02/M03 Q1023 R33/190050 NOSIG RMK QFE752/1002

Airport on the map: